Time;durP1;ratioP1;P1;durP2;ratioP2;P2;SDS_P1;SDS_P2;PMS_P1;PMS_P2;Temp;Humidity;BMP_temperature;BMP_pressure;BME280_temperature;BME280_humidity;BME280_pressure;Samples;Min_cycle;Max_cycle;Signal;HPM_P1;HPM_P2
2023/03/10 00:00:43;;;;;;;4.57;0.85;;;11.50;93.20;;;;;;4944017;29;20136;-72
2023/03/10 00:03:10;;;;;;;3.50;0.82;;;11.50;93.30;;;;;;4944040;29;20055;-71
2023/03/10 00:05:37;;;;;;;3.08;1.00;;;11.50;93.40;;;;;;4946204;29;20063;-70
2023/03/10 00:08:04;;;;;;;4.90;1.00;;;11.50;93.40;;;;;;4947262;29;20209;-72
2023/03/10 00:10:29;;;;;;;3.80;1.20;;;11.50;93.90;;;;;;4947896;29;20063;-71
2023/03/10 00:12:55;;;;;;;4.63;1.15;;;11.40;94.30;;;;;;4946494;29;20032;-71
2023/03/10 00:15:22;;;;;;;5.40;1.15;;;11.40;94.50;;;;;;4947724;29;20083;-73
2023/03/10 00:17:54;;;;;;;3.30;1.13;;;11.30;94.50;;;;;;4947459;29;20127;-71
2023/03/10 00:20:21;;;;;;;3.03;0.80;;;11.20;94.60;;;;;;4942173;29;20114;-71
2023/03/10 00:22:47;;;;;;;3.25;1.25;;;11.20;94.80;;;;;;4947238;29;20039;-70
2023/03/10 00:25:14;;;;;;;5.32;1.00;;;11.10;94.90;;;;;;4947703;29;20079;-72
2023/03/10 00:27:40;;;;;;;4.65;1.05;;;11.10;94.80;;;;;;4947951;29;20131;-71
2023/03/10 00:30:07;;;;;;;4.43;1.15;;;11.10;94.80;;;;;;4947396;29;20043;-70
2023/03/10 06:02:20;;;;;;;1.83;0.47;;;9.60;99.90;;;;;;5501937;23;20055;-73
2023/03/10 06:04:45;;;;;;;3.80;0.77;;;9.70;99.90;;;;;;4983617;28;20030;-72
2023/03/10 06:07:11;;;;;;;2.92;0.70;;;9.80;99.90;;;;;;4984281;28;20041;-71
2023/03/10 06:09:37;;;;;;;1.42;0.40;;;9.90;99.90;;;;;;4983995;28;20034;-71
2023/03/10 06:12:03;;;;;;;2.28;0.40;;;9.90;99.90;;;;;;4984121;28;20196;-71
2023/03/10 06:14:28;;;;;;;2.85;0.40;;;10.00;99.90;;;;;;4984416;28;20349;-70
2023/03/10 06:16:55;;;;;;;2.10;0.45;;;10.10;99.90;;;;;;4984077;28;20047;-70
2023/03/10 06:19:21;;;;;;;2.35;0.60;;;10.20;99.90;;;;;;4983573;28;20050;-70
2023/03/10 06:21:48;;;;;;;0.90;0.20;;;10.30;99.90;;;;;;4984101;28;20300;-71
2023/03/10 06:24:14;;;;;;;1.45;0.30;;;10.20;99.90;;;;;;4983562;28;20046;-73
2023/03/10 06:26:40;;;;;;;1.17;0.30;;;10.20;99.90;;;;;;4983833;28;20039;-70
2023/03/10 06:29:06;;;;;;;3.10;0.63;;;10.10;99.90;;;;;;4983170;28;20066;-70
2023/03/10 06:31:32;;;;;;;1.10;0.20;;;9.90;99.90;;;;;;4983902;28;20034;-70
2023/03/10 06:33:58;;;;;;;2.50;0.30;;;9.70;99.90;;;;;;4983870;28;20216;-70
2023/03/10 06:36:25;;;;;;;2.40;0.28;;;9.60;99.90;;;;;;4983286;28;20035;-70
2023/03/10 06:38:52;;;;;;;0.95;0.30;;;9.30;99.90;;;;;;4983679;28;20078;-70
2023/03/10 06:41:19;;;;;;;0.73;0.20;;;9.10;99.90;;;;;;4983674;28;20042;-71
2023/03/10 06:43:46;;;;;;;1.88;0.30;;;9.00;99.90;;;;;;4983696;28;20034;-71
2023/03/10 06:46:12;;;;;;;0.93;0.20;;;8.90;99.90;;;;;;4983271;28;20031;-71
2023/03/10 06:48:39;;;;;;;3.47;0.30;;;8.90;99.90;;;;;;4983635;28;20047;-71
2023/03/10 06:51:12;;;;;;;2.13;0.10;;;8.90;99.90;;;;;;4982777;28;20086;-71
2023/03/10 06:53:38;;;;;;;0.80;0.20;;;8.90;99.90;;;;;;4983662;28;20454;-72
2023/03/10 06:56:06;;;;;;;0.90;0.10;;;8.80;99.90;;;;;;4982962;28;20368;-71
2023/03/10 06:58:33;;;;;;;1.30;0.20;;;8.90;99.90;;;;;;4971787;28;20042;-70
2023/03/10 07:00:59;;;;;;;0.50;0.20;;;8.90;99.90;;;;;;4982477;28;20244;-70
2023/03/10 07:03:27;;;;;;;2.33;0.50;;;9.00;99.90;;;;;;4982764;28;20122;-70
2023/03/10 07:06:00;;;;;;;1.33;0.35;;;9.10;99.90;;;;;;4966065;28;20030;-71
2023/03/10 07:08:29;;;;;;;1.70;0.20;;;9.20;99.90;;;;;;4982507;28;20054;-72
2023/03/10 07:10:55;;;;;;;2.08;0.38;;;9.30;99.90;;;;;;4983191;28;20187;-70
2023/03/10 07:13:21;;;;;;;1.45;0.10;;;9.40;99.90;;;;;;4982795;28;20249;-71
2023/03/10 07:15:47;;;;;;;0.43;0.10;;;9.50;99.90;;;;;;4983295;28;20367;-71
2023/03/10 07:18:13;;;;;;;2.15;0.20;;;9.50;99.90;;;;;;4972239;28;20039;-69
2023/03/10 07:20:43;;;;;;;0.60;0.20;;;9.60;99.90;;;;;;4976407;28;20140;-70
2023/03/10 07:23:09;;;;;;;1.42;0.10;;;9.60;99.90;;;;;;4978536;28;20023;-70
2023/03/10 07:25:36;;;;;;;3.35;0.30;;;9.70;99.90;;;;;;4974668;28;20039;-70
2023/03/10 07:28:03;;;;;;;1.60;0.38;;;9.70;99.90;;;;;;4982657;28;20105;-70
2023/03/10 07:30:30;;;;;;;1.50;0.28;;;9.80;99.90;;;;;;4982492;28;20371;-71
2023/03/10 07:32:55;;;;;;;1.65;0.40;;;9.80;99.90;;;;;;4955028;28;20089;-70
2023/03/10 07:35:21;;;;;;;1.48;0.30;;;9.90;99.90;;;;;;4979504;28;20027;-71
2023/03/10 07:37:47;;;;;;;1.80;0.30;;;9.90;99.90;;;;;;4979067;28;20030;-70
2023/03/10 07:40:13;;;;;;;1.55;0.52;;;10.10;99.90;;;;;;4981872;28;20046;-71
2023/03/10 07:42:38;;;;;;;2.47;0.80;;;10.20;99.90;;;;;;4982150;28;20035;-70
2023/03/10 07:45:05;;;;;;;4.47;0.80;;;10.30;99.90;;;;;;4982718;28;20034;-71
2023/03/10 07:47:30;;;;;;;3.13;0.82;;;10.40;99.90;;;;;;4982100;28;20072;-71
2023/03/10 07:49:56;;;;;;;2.22;0.40;;;10.50;99.90;;;;;;4975115;28;20034;-72
2023/03/10 07:52:22;;;;;;;1.77;0.60;;;10.60;99.90;;;;;;4981846;28;20043;-72
2023/03/10 07:54:47;;;;;;;2.67;0.40;;;10.60;99.90;;;;;;4981869;28;20102;-74
2023/03/10 07:57:14;;;;;;;2.70;0.47;;;10.70;99.90;;;;;;4974279;28;20022;-71
2023/03/10 07:59:41;;;;;;;1.13;0.30;;;10.80;99.90;;;;;;4981963;28;20110;-71
2023/03/10 08:02:10;;;;;;;1.27;0.30;;;10.80;99.90;;;;;;4979905;28;20066;-70
2023/03/10 08:04:39;;;;;;;3.92;0.30;;;10.80;99.90;;;;;;4978891;28;20053;-71
2023/03/10 08:07:05;;;;;;;1.55;0.30;;;10.60;99.90;;;;;;4970026;28;20441;-70
2023/03/10 08:09:31;;;;;;;2.83;0.40;;;10.40;99.90;;;;;;4971706;28;20035;-72
2023/03/10 08:12:00;;;;;;;1.30;0.35;;;10.00;99.90;;;;;;4981447;28;20030;-70
2023/03/10 08:14:30;;;;;;;2.08;0.30;;;9.70;99.90;;;;;;4974082;28;20042;-72
2023/03/10 08:16:56;;;;;;;5.75;0.70;;;9.50;99.90;;;;;;4981321;28;20058;-72
2023/03/10 08:19:23;;;;;;;2.28;0.40;;;9.30;99.90;;;;;;4981108;28;20193;-71
2023/03/10 08:21:49;;;;;;;5.20;0.45;;;9.20;99.90;;;;;;4977085;28;20047;-74
2023/03/10 08:24:15;;;;;;;1.88;0.45;;;9.20;99.90;;;;;;4971281;28;20212;-71
2023/03/10 08:26:41;;;;;;;3.05;0.30;;;9.10;99.90;;;;;;4983755;28;20035;-70
2023/03/10 08:29:06;;;;;;;1.83;0.35;;;9.10;99.90;;;;;;4985176;28;20335;-71
2023/03/10 08:31:32;;;;;;;2.38;0.43;;;9.10;99.90;;;;;;4983637;28;20356;-70
2023/03/10 08:33:58;;;;;;;4.18;0.80;;;9.10;99.90;;;;;;4985520;28;20050;-71
2023/03/10 08:36:27;;;;;;;2.00;0.40;;;9.10;99.90;;;;;;4983207;28;20050;-71
2023/03/10 08:38:55;;;;;;;2.80;0.68;;;9.10;99.90;;;;;;4983779;28;20043;-75
2023/03/10 08:41:24;;;;;;;2.47;0.50;;;9.00;99.90;;;;;;4984800;28;20157;-70
2023/03/10 08:43:51;;;;;;;3.63;0.38;;;9.10;99.90;;;;;;4985152;28;20379;-71
2023/03/10 08:46:18;;;;;;;2.88;0.65;;;9.10;99.90;;;;;;4984355;28;20043;-73
2023/03/10 08:48:45;;;;;;;3.92;0.70;;;9.20;99.90;;;;;;4982343;28;20255;-72
2023/03/10 08:51:11;;;;;;;2.08;0.40;;;9.30;99.90;;;;;;4974003;28;20031;-71
2023/03/10 08:53:37;;;;;;;2.78;0.38;;;9.70;99.90;;;;;;4983843;28;20034;-71
2023/03/10 08:56:04;;;;;;;2.35;0.30;;;10.00;99.90;;;;;;4984542;28;20300;-70
2023/03/10 08:58:30;;;;;;;1.30;0.30;;;10.40;99.90;;;;;;4983878;28;20308;-69
2023/03/10 09:00:56;;;;;;;2.03;0.20;;;10.40;99.90;;;;;;4981413;28;20035;-71
2023/03/10 09:03:22;;;;;;;1.10;0.20;;;10.20;99.90;;;;;;4972801;28;20118;-71
2023/03/10 09:05:47;;;;;;;1.10;0.25;;;10.00;99.90;;;;;;4959020;28;20035;-71
2023/03/10 09:08:13;;;;;;;1.63;0.35;;;9.90;99.90;;;;;;4983584;28;20393;-71
2023/03/10 09:10:41;;;;;;;1.40;0.20;;;10.00;99.90;;;;;;4975034;28;20030;-71
2023/03/10 09:13:07;;;;;;;1.88;0.43;;;10.00;99.90;;;;;;4973256;28;20041;-70
2023/03/10 09:15:34;;;;;;;0.95;0.40;;;10.20;99.90;;;;;;4972984;28;20027;-72
2023/03/10 09:18:00;;;;;;;1.52;0.30;;;10.50;99.90;;;;;;4984132;28;20035;-72
2023/03/10 09:20:26;;;;;;;2.40;0.30;;;10.70;99.90;;;;;;4982851;28;20037;-70
2023/03/10 09:22:54;;;;;;;2.38;0.30;;;10.90;99.90;;;;;;4980319;28;20058;-70
2023/03/10 09:25:21;;;;;;;2.33;0.38;;;11.10;99.90;;;;;;4970381;28;20081;-71
2023/03/10 09:27:47;;;;;;;2.05;0.30;;;11.30;99.90;;;;;;4971657;28;20217;-71
2023/03/10 09:30:13;;;;;;;1.52;0.32;;;11.50;99.90;;;;;;4975350;28;20034;-72
2023/03/10 09:32:39;;;;;;;2.95;0.30;;;11.70;99.90;;;;;;4978903;28;20062;-71
2023/03/10 09:35:05;;;;;;;4.30;0.50;;;11.80;99.90;;;;;;4975471;28;20037;-72
2023/03/10 09:37:31;;;;;;;1.77;0.32;;;11.90;99.90;;;;;;4973516;28;20663;-71
2023/03/10 09:39:57;;;;;;;1.75;0.40;;;11.80;99.90;;;;;;4974174;28;20050;-72
2023/03/10 09:42:39;;;;;;;1.83;0.40;;;11.80;99.90;;;;;;4983225;28;20027;-70
2023/03/10 09:45:31;;;;;;;3.15;0.35;;;11.70;99.90;;;;;;4983583;28;20212;-69
2023/03/10 09:48:06;;;;;;;1.35;0.20;;;11.80;99.90;;;;;;4984260;28;20143;-72
2023/03/10 09:50:41;;;;;;;3.80;0.50;;;11.80;99.90;;;;;;4977849;28;20106;-72
2023/03/10 09:53:47;;;;;;;3.40;0.40;;;11.90;99.90;;;;;;4983745;28;20042;-71
2023/03/10 09:56:16;;;;;;;2.38;0.32;;;11.90;99.90;;;;;;4972490;28;20031;-73
2023/03/10 09:58:47;;;;;;;2.03;0.30;;;11.90;99.90;;;;;;4976410;28;20039;-74
2023/03/10 10:01:25;;;;;;;2.15;0.32;;;12.00;99.90;;;;;;4983494;28;20113;-71
2023/03/10 10:04:11;;;;;;;3.25;0.80;;;12.10;99.90;;;;;;4945494;29;20043;-70
2023/03/10 10:06:41;;;;;;;2.58;0.52;;;12.50;99.90;;;;;;4944065;29;20055;-70
2023/03/10 10:09:24;;;;;;;2.42;0.40;;;12.60;99.90;;;;;;4944630;29;20231;-71
2023/03/10 10:11:49;;;;;;;2.47;0.52;;;12.80;99.90;;;;;;4944859;29;20040;-71
2023/03/10 10:14:21;;;;;;;3.00;0.47;;;12.90;99.90;;;;;;4942647;29;20260;-72
2023/03/10 10:17:08;;;;;;;2.92;0.70;;;12.90;99.90;;;;;;4925949;29;20098;-71
2023/03/10 10:19:36;;;;;;;1.75;0.30;;;12.90;99.90;;;;;;4925305;29;20291;-71
2023/03/10 10:22:17;;;;;;;1.50;0.52;;;12.80;99.90;;;;;;4924378;29;20040;-70
2023/03/10 10:25:01;;;;;;;2.53;0.90;;;12.60;99.90;;;;;;4938498;29;20360;-72
2023/03/10 10:27:30;;;;;;;3.85;0.70;;;12.20;99.90;;;;;;4936859;29;20102;-71
2023/03/10 10:29:57;;;;;;;3.25;0.40;;;12.00;99.90;;;;;;4925211;29;20334;-70
2023/03/10 10:32:23;;;;;;;1.70;0.57;;;12.00;99.90;;;;;;4925996;29;20103;-71
2023/03/10 10:34:49;;;;;;;2.05;0.45;;;11.90;99.90;;;;;;4925977;29;20099;-72
2023/03/10 10:37:31;;;;;;;3.28;1.38;;;11.90;99.90;;;;;;4925137;29;20035;-72
2023/03/10 10:39:59;;;;;;;3.50;0.50;;;11.90;99.90;;;;;;4937311;29;20090;-71
2023/03/10 10:42:33;;;;;;;2.95;0.73;;;12.00;99.90;;;;;;4944154;29;20066;-72
2023/03/10 10:45:06;;;;;;;1.90;0.40;;;12.10;99.90;;;;;;4944219;29;20083;-71
2023/03/10 10:47:48;;;;;;;4.22;0.90;;;12.10;99.90;;;;;;4928723;29;20035;-71
2023/03/10 10:50:34;;;;;;;2.13;0.63;;;11.90;99.90;;;;;;4924883;29;20050;-72
2023/03/10 10:53:20;;;;;;;3.97;1.08;;;11.80;99.90;;;;;;4925166;29;20054;-70
2023/03/10 10:55:57;;;;;;;5.25;1.83;;;12.20;99.90;;;;;;4925120;29;20047;-72
2023/03/10 10:58:32;;;;;;;5.15;1.67;;;12.40;99.90;;;;;;4924316;29;20062;-75
2023/03/10 11:01:06;;;;;;;5.32;0.65;;;12.70;99.90;;;;;;4924151;29;20051;-73
2023/03/10 11:03:35;;;;;;;5.00;0.50;;;12.60;99.90;;;;;;4970611;28;20055;-70
2023/03/10 11:06:28;;;;;;;2.72;0.60;;;12.50;99.90;;;;;;4965417;28;20037;-73
2023/03/10 11:09:11;;;;;;;1.83;0.40;;;12.30;99.90;;;;;;4981902;28;20337;-73
2023/03/10 11:11:55;;;;;;;4.03;1.08;;;12.30;99.90;;;;;;4981426;28;20312;-72
2023/03/10 11:14:42;;;;;;;1.67;0.30;;;12.30;99.90;;;;;;4970201;28;20045;-72
2023/03/10 11:17:32;;;;;;;3.05;0.77;;;12.30;99.90;;;;;;4982342;28;20035;-72
2023/03/10 11:20:23;;;;;;;1.80;0.32;;;12.40;99.90;;;;;;4982715;28;20034;-70
2023/03/10 11:22:58;;;;;;;1.23;0.30;;;12.40;99.90;;;;;;4965254;28;20149;-73
2023/03/10 11:25:30;;;;;;;3.47;0.52;;;12.70;99.90;;;;;;4982175;28;20035;-72
2023/03/10 11:28:15;;;;;;;2.22;0.47;;;12.90;99.90;;;;;;4982320;28;20039;-71
2023/03/10 11:31:14;;;;;;;3.30;0.70;;;12.80;99.90;;;;;;4981956;28;20038;-72
2023/03/10 11:33:43;;;;;;;1.42;0.30;;;12.90;99.90;;;;;;4965911;28;20069;-71
2023/03/10 11:36:27;;;;;;;;;;;12.80;99.90;;;;;;4977197;28;20249;-69
2023/03/10 11:39:15;;;;;;;1.73;0.50;;;12.70;99.90;;;;;;4978321;28;19913;-70
2023/03/10 11:41:47;;;;;;;2.33;0.40;;;12.60;99.90;;;;;;4967745;28;20041;-70
2023/03/10 11:44:28;;;;;;;6.10;0.50;;;12.80;99.90;;;;;;4982242;28;20264;-70
2023/03/10 11:46:57;;;;;;;2.72;0.60;;;12.70;99.90;;;;;;4982039;28;20034;-70
2023/03/10 11:49:28;;;;;;;2.55;0.40;;;12.60;99.90;;;;;;4977466;28;20085;-70
2023/03/10 11:52:00;;;;;;;3.28;0.55;;;12.70;99.90;;;;;;4965250;28;20037;-71
2023/03/10 11:54:33;;;;;;;2.00;0.60;;;12.80;99.90;;;;;;4981965;28;20109;-72
2023/03/10 11:57:03;;;;;;;2.03;0.30;;;12.60;99.90;;;;;;4982501;28;20190;-70
2023/03/10 11:59:33;;;;;;;2.10;0.30;;;12.30;99.90;;;;;;4981628;28;20047;-72
2023/03/10 12:02:09;;;;;;;2.08;0.30;;;12.10;99.90;;;;;;4984068;28;20046;-72
2023/03/10 12:04:47;;;;;;;1.73;0.28;;;12.10;99.90;;;;;;4981242;28;20063;-70
2023/03/10 12:07:20;;;;;;;2.47;0.43;;;12.20;99.90;;;;;;4975136;28;20238;-69
2023/03/10 12:10:13;;;;;;;2.20;0.55;;;12.40;99.90;;;;;;4973947;28;20043;-70
2023/03/10 12:12:43;;;;;;;2.50;0.40;;;12.40;99.90;;;;;;4980944;28;20258;-71
2023/03/10 12:15:35;;;;;;;2.45;0.40;;;12.40;99.90;;;;;;4977312;28;20034;-71
2023/03/10 12:18:06;;;;;;;0.88;0.15;;;12.50;99.90;;;;;;4986470;28;20311;-70
2023/03/10 12:20:33;;;;;;;3.20;0.40;;;12.80;99.90;;;;;;4986231;28;20183;-72
2023/03/10 12:23:08;;;;;;;1.42;0.20;;;13.00;99.90;;;;;;4970818;28;20039;-71
2023/03/10 12:25:36;;;;;;;4.60;0.40;;;13.50;99.90;;;;;;4982638;28;20027;-72
2023/03/10 12:28:24;;;;;;;3.28;0.65;;;13.80;99.90;;;;;;4986173;28;20051;-71
2023/03/10 12:31:06;;;;;;;1.77;0.50;;;14.10;99.10;;;;;;4985603;28;20312;-70
2023/03/10 12:33:41;;;;;;;0.68;0.10;;;13.90;97.60;;;;;;4985085;28;20055;-70
2023/03/10 12:36:31;;;;;;;1.58;0.20;;;13.50;97.70;;;;;;4983735;28;20322;-73
2023/03/10 12:39:29;;;;;;;1.73;0.30;;;13.20;97.80;;;;;;4957915;28;20038;-70
2023/03/10 12:42:04;;;;;;;0.90;0.20;;;12.90;98.60;;;;;;4981498;28;20110;-69
2023/03/10 12:44:51;;;;;;;0.73;0.15;;;12.70;99.40;;;;;;4986298;28;20037;-69
2023/03/10 12:47:36;;;;;;;1.23;0.20;;;12.60;99.90;;;;;;4986045;28;20037;-69
2023/03/10 12:50:14;;;;;;;1.02;0.20;;;12.70;99.60;;;;;;4985852;28;20031;-71
2023/03/10 12:52:39;;;;;;;1.30;0.20;;;12.80;99.90;;;;;;4985503;28;20046;-71
2023/03/10 12:55:16;;;;;;;1.27;0.20;;;13.20;99.90;;;;;;4985649;28;20058;-70
2023/03/10 12:58:02;;;;;;;0.98;0.20;;;13.40;99.10;;;;;;4967473;28;20058;-70
2023/03/10 13:00:43;;;;;;;2.63;0.47;;;13.30;98.90;;;;;;4982781;28;20037;-70
2023/03/10 13:03:09;;;;;;;1.13;0.20;;;13.10;99.10;;;;;;4985206;28;20051;-71
2023/03/10 13:05:41;;;;;;;1.08;0.10;;;12.90;99.70;;;;;;4983498;28;20308;-70
2023/03/10 13:08:32;;;;;;;0.32;0.08;;;12.90;99.40;;;;;;4985290;28;20030;-71
2023/03/10 13:10:59;;;;;;;1.35;0.30;;;12.60;99.90;;;;;;4978255;28;20058;-71
2023/03/10 13:13:31;;;;;;;1.08;0.20;;;12.30;99.90;;;;;;4975856;28;20023;-71
2023/03/10 13:16:06;;;;;;;1.25;0.10;;;12.00;99.90;;;;;;4971777;28;20097;-71
2023/03/10 13:18:33;;;;;;;0.90;0.20;;;11.80;99.90;;;;;;4984677;28;20061;-71
2023/03/10 13:21:01;;;;;;;1.65;0.30;;;11.80;99.90;;;;;;4984737;28;20035;-72
2023/03/10 13:23:33;;;;;;;1.08;0.20;;;11.90;99.90;;;;;;4975824;28;20381;-71
2023/03/10 13:26:01;;;;;;;1.23;0.17;;;11.90;99.90;;;;;;4985081;28;20297;-71
2023/03/10 13:28:30;;;;;;;0.63;0.15;;;11.90;99.90;;;;;;4984291;28;20265;-70
2023/03/10 13:31:09;;;;;;;;;;;11.90;99.90;;;;;;4984549;28;20035;-71
2023/03/10 13:33:34;;;;;;;1.13;0.30;;;12.10;99.90;;;;;;4984818;28;19944;-72
2023/03/10 13:36:00;;;;;;;1.83;0.20;;;12.00;99.90;;;;;;4982786;28;20022;-71
2023/03/10 13:38:26;;;;;;;1.70;0.20;;;11.60;99.90;;;;;;4971500;28;20039;-70
2023/03/10 13:41:01;;;;;;;0.57;0.10;;;11.10;99.90;;;;;;4984487;28;20034;-71
2023/03/10 13:43:36;;;;;;;1.67;0.20;;;10.80;99.90;;;;;;4984354;28;20046;-72
2023/03/10 13:46:08;;;;;;;0.77;0.20;;;10.70;99.90;;;;;;4985003;28;20035;-71
2023/03/10 13:48:35;;;;;;;1.13;0.20;;;10.50;99.90;;;;;;4983322;28;20046;-72
2023/03/10 13:51:15;;;;;;;1.00;0.10;;;10.30;99.90;;;;;;4971754;28;20031;-71
2023/03/10 13:53:41;;;;;;;0.85;0.20;;;10.20;99.90;;;;;;4984147;28;20084;-70
2023/03/10 13:56:20;;;;;;;0.20;0.10;;;10.50;99.90;;;;;;4984148;28;20034;-72
2023/03/10 13:58:47;;;;;;;1.30;0.10;;;10.70;99.90;;;;;;4983966;28;20329;-71
2023/03/10 14:01:25;;;;;;;0.30;0.00;;;10.70;99.90;;;;;;4984639;28;20033;-71
2023/03/10 14:04:05;;;;;;;0.90;0.10;;;10.70;99.90;;;;;;4984832;28;20062;-71
2023/03/10 14:06:31;;;;;;;0.52;0.10;;;10.70;99.90;;;;;;4983905;28;20035;-70
2023/03/10 14:09:12;;;;;;;1.02;0.17;;;10.70;99.90;;;;;;4984057;28;20066;-70
2023/03/10 14:11:40;;;;;;;0.70;0.10;;;10.90;99.90;;;;;;4983743;28;20065;-70
2023/03/10 14:14:08;;;;;;;0.57;0.10;;;11.30;99.90;;;;;;4975005;28;20073;-71
2023/03/10 14:16:50;;;;;;;0.40;0.10;;;12.00;99.90;;;;;;4983701;28;20102;-71
2023/03/10 14:19:36;;;;;;;0.40;0.10;;;12.40;99.90;;;;;;4984157;28;20054;-70
2023/03/10 14:22:02;;;;;;;0.20;0.00;;;12.60;99.90;;;;;;4983917;28;20273;-72
2023/03/10 14:24:27;;;;;;;0.70;0.10;;;12.60;99.90;;;;;;4973381;28;20035;-71
2023/03/10 14:26:58;;;;;;;1.77;0.20;;;12.30;99.90;;;;;;4983745;28;20089;-71
2023/03/10 14:29:24;;;;;;;0.20;0.03;;;12.00;99.90;;;;;;4968149;28;20431;-74
2023/03/10 14:31:50;;;;;;;0.32;0.10;;;11.60;99.90;;;;;;4966627;28;20118;-73
2023/03/10 14:34:16;;;;;;;0.93;0.20;;;11.50;99.90;;;;;;4966839;28;20073;-72
2023/03/10 14:36:41;;;;;;;0.77;0.10;;;11.20;99.90;;;;;;4981770;28;20050;-72
2023/03/10 14:39:07;;;;;;;0.82;0.10;;;10.80;99.90;;;;;;4983686;28;20309;-74
2023/03/10 14:41:33;;;;;;;0.60;0.00;;;10.60;99.90;;;;;;4983492;28;20258;-73
2023/03/10 14:44:00;;;;;;;1.48;0.10;;;10.40;99.90;;;;;;4983704;28;20335;-73
2023/03/10 14:46:26;;;;;;;1.88;0.15;;;10.20;99.90;;;;;;4983791;28;20199;-73
2023/03/10 14:48:52;;;;;;;0.57;0.10;;;10.20;99.90;;;;;;4982090;28;20050;-76
2023/03/10 14:51:21;;;;;;;0.75;0.20;;;10.30;99.90;;;;;;4950603;28;20066;-74
2023/03/10 14:53:52;;;;;;;1.58;0.10;;;10.40;99.90;;;;;;4984974;28;20212;-80
2023/03/10 14:56:20;;;;;;;0.68;0.10;;;10.60;99.90;;;;;;4967330;28;20042;-76
2023/03/10 14:58:52;;;;;;;0.50;0.10;;;10.50;99.90;;;;;;4978097;28;20038;-77
2023/03/10 15:01:19;;;;;;;0.47;0.10;;;10.30;99.90;;;;;;4982750;28;20113;-77
2023/03/10 15:03:54;;;;;;;0.80;0.10;;;10.10;99.90;;;;;;4981253;28;20038;-77
2023/03/10 15:06:19;;;;;;;0.50;0.13;;;9.90;99.90;;;;;;4973291;28;20109;-77
2023/03/10 15:08:47;;;;;;;1.67;0.10;;;9.80;99.90;;;;;;4965736;28;20050;-76
2023/03/10 15:11:13;;;;;;;0.40;0.10;;;9.80;99.90;;;;;;4983388;28;20035;-74
2023/03/10 15:13:45;;;;;;;0.47;0.10;;;9.70;99.90;;;;;;4973809;28;20083;-79
2023/03/10 15:16:13;;;;;;;0.55;0.10;;;9.80;99.90;;;;;;4983385;28;20042;-74
2023/03/10 15:18:39;;;;;;;0.73;0.30;;;9.80;99.90;;;;;;4982547;28;20045;-77
2023/03/10 15:21:04;;;;;;;0.68;0.10;;;9.80;99.90;;;;;;4983086;28;20090;-76
2023/03/10 15:23:30;;;;;;;0.60;0.10;;;9.80;99.90;;;;;;4974225;28;20093;-74
2023/03/10 15:25:57;;;;;;;0.73;0.10;;;9.70;99.90;;;;;;4978792;28;20057;-75
2023/03/10 15:28:23;;;;;;;0.40;0.20;;;9.60;99.90;;;;;;4958078;28;20264;-75
2023/03/10 15:30:49;;;;;;;0.40;0.20;;;9.50;99.90;;;;;;4965427;28;20038;-73
2023/03/10 15:33:14;;;;;;;0.32;0.00;;;9.50;99.90;;;;;;4982869;28;20035;-71
2023/03/10 15:35:41;;;;;;;0.32;0.10;;;9.60;99.90;;;;;;4980684;28;20061;-72
2023/03/10 15:38:07;;;;;;;0.77;0.10;;;9.90;99.90;;;;;;4982253;28;20248;-75
2023/03/10 15:40:34;;;;;;;0.73;0.10;;;10.10;99.90;;;;;;4982472;28;20058;-77
2023/03/10 15:43:00;;;;;;;0.68;0.05;;;10.00;99.90;;;;;;4982730;28;20077;-75
2023/03/10 15:45:28;;;;;;;0.40;0.10;;;10.00;99.90;;;;;;4982571;28;20220;-71
2023/03/10 15:47:54;;;;;;;0.63;0.10;;;10.10;99.90;;;;;;4982292;28;20030;-71
2023/03/10 15:50:21;;;;;;;0.57;0.10;;;10.40;99.90;;;;;;4981458;28;20260;-72
2023/03/10 15:52:55;;;;;;;0.68;0.20;;;10.40;99.90;;;;;;4965306;28;20026;-70
2023/03/10 15:55:21;;;;;;;1.17;0.17;;;10.50;99.90;;;;;;4982847;28;20049;-70
2023/03/10 15:57:48;;;;;;;2.95;0.40;;;10.30;99.90;;;;;;4982403;28;20273;-72
2023/03/10 16:00:15;;;;;;;1.00;0.10;;;10.70;99.90;;;;;;4982736;28;20034;-73
2023/03/10 16:02:42;;;;;;;1.63;0.30;;;11.20;99.80;;;;;;4982157;28;20278;-71
2023/03/10 16:05:08;;;;;;;2.22;0.50;;;11.80;97.90;;;;;;4970101;28;20043;-71
2023/03/10 16:07:34;;;;;;;1.25;0.20;;;12.20;96.70;;;;;;4981152;28;20065;-71
2023/03/10 16:10:00;;;;;;;3.05;0.57;;;11.90;96.00;;;;;;4965578;28;20039;-69
2023/03/10 16:12:26;;;;;;;2.03;0.75;;;11.80;95.60;;;;;;4983134;28;20034;-70
2023/03/10 16:14:54;;;;;;;2.88;0.40;;;12.00;93.80;;;;;;4974087;28;20031;-73
2023/03/10 16:17:21;;;;;;;2.80;0.47;;;12.50;93.20;;;;;;4983091;28;20049;-72
2023/03/10 16:19:47;;;;;;;3.30;0.60;;;12.60;91.40;;;;;;4982659;28;20051;-71
2023/03/10 16:22:13;;;;;;;2.35;0.40;;;12.50;91.30;;;;;;4982793;28;20265;-71
2023/03/10 16:24:38;;;;;;;4.63;0.50;;;12.90;90.60;;;;;;4972703;28;20034;-72
2023/03/10 16:27:04;;;;;;;3.08;0.40;;;12.70;89.80;;;;;;4982831;28;20320;-73
2023/03/10 16:29:30;;;;;;;3.15;0.55;;;11.50;91.40;;;;;;4983016;28;20039;-72
2023/03/10 16:31:56;;;;;;;4.18;0.60;;;11.00;92.50;;;;;;4965076;28;20057;-72
2023/03/10 16:34:21;;;;;;;2.75;0.50;;;10.60;93.40;;;;;;4982648;28;20042;-71
2023/03/10 16:36:49;;;;;;;4.18;0.55;;;10.10;94.10;;;;;;4963521;28;20336;-72
2023/03/10 16:39:15;;;;;;;4.85;0.80;;;10.00;94.70;;;;;;4965388;28;20066;-73
2023/03/10 16:41:41;;;;;;;3.85;0.50;;;9.60;97.70;;;;;;4982259;28;20053;-72
2023/03/10 16:44:09;;;;;;;4.25;0.52;;;8.90;99.90;;;;;;4982580;28;20027;-73
2023/03/10 16:46:36;;;;;;;3.97;0.65;;;8.50;99.90;;;;;;4982474;28;20124;-71
2023/03/10 16:49:02;;;;;;;5.07;1.00;;;8.30;99.90;;;;;;4984850;28;20304;-73
2023/03/10 16:51:34;;;;;;;2.50;0.60;;;8.20;99.90;;;;;;4981776;28;20031;-71
2023/03/10 16:54:02;;;;;;;3.67;0.90;;;8.00;99.90;;;;;;4982530;28;20030;-71
2023/03/10 16:56:29;;;;;;;3.60;0.68;;;7.90;99.90;;;;;;4986257;28;20042;-73
2023/03/10 16:58:56;;;;;;;4.47;0.98;;;7.80;99.90;;;;;;4985319;28;20030;-71
2023/03/10 17:01:25;;;;;;;3.47;1.13;;;7.70;99.90;;;;;;4985894;28;20074;-71
2023/03/10 17:03:52;;;;;;;5.72;0.77;;;7.60;99.90;;;;;;4982508;28;20031;-72
2023/03/10 17:06:24;;;;;;;3.25;0.70;;;7.60;99.90;;;;;;4958591;28;20301;-75
2023/03/10 17:08:51;;;;;;;3.33;0.85;;;7.60;99.90;;;;;;4985466;28;20045;-71
2023/03/10 17:11:25;;;;;;;2.60;0.70;;;7.50;99.90;;;;;;4985329;28;20416;-72
2023/03/10 17:13:53;;;;;;;3.63;0.60;;;7.60;99.90;;;;;;4958583;28;20345;-73
2023/03/10 17:16:22;;;;;;;3.47;0.80;;;7.70;99.90;;;;;;4985608;28;20053;-73
2023/03/10 17:18:48;;;;;;;4.65;0.90;;;7.70;99.90;;;;;;4985021;28;20093;-72
2023/03/10 17:21:22;;;;;;;3.88;0.88;;;7.70;99.90;;;;;;4985596;28;20102;-71
2023/03/10 17:23:48;;;;;;;6.32;1.00;;;7.60;99.90;;;;;;4975122;28;20039;-72
2023/03/10 17:26:14;;;;;;;3.78;1.02;;;7.50;99.90;;;;;;4985849;28;20034;-73
2023/03/10 17:28:41;;;;;;;2.97;1.00;;;7.50;99.90;;;;;;4967126;28;20097;-73
2023/03/10 17:31:16;;;;;;;5.30;1.10;;;7.50;99.90;;;;;;4968006;28;20316;-74
2023/03/10 17:33:42;;;;;;;3.60;0.63;;;7.50;99.50;;;;;;4984466;28;20065;-73
2023/03/10 17:36:10;;;;;;;4.78;0.70;;;7.50;99.30;;;;;;4983019;28;20130;-73
2023/03/10 17:38:36;;;;;;;;;;;7.50;99.40;;;;;;4985766;28;20101;-70
2023/03/10 17:41:07;;;;;;;4.68;1.20;;;7.50;99.10;;;;;;4978372;28;19910;-71
2023/03/10 17:43:33;;;;;;;6.18;1.02;;;7.50;98.50;;;;;;4961203;28;20031;-72
2023/03/10 17:46:08;;;;;;;3.65;0.80;;;7.60;98.30;;;;;;4983560;28;20356;-74
2023/03/10 17:48:34;;;;;;;3.53;0.80;;;7.60;98.30;;;;;;4983146;28;20109;-74
2023/03/10 17:51:00;;;;;;;5.05;0.93;;;7.50;98.30;;;;;;4983826;28;20043;-76
2023/03/10 17:53:27;;;;;;;3.95;0.80;;;7.50;98.00;;;;;;4984754;28;20041;-75
2023/03/10 17:55:53;;;;;;;3.83;0.70;;;7.50;98.40;;;;;;4966988;28;20018;-73
2023/03/10 17:58:19;;;;;;;5.85;0.90;;;7.60;98.30;;;;;;4984196;28;20042;-74
2023/03/10 18:00:45;;;;;;;6.72;0.98;;;7.60;98.30;;;;;;4983688;28;20023;-76
2023/03/10 18:03:11;;;;;;;6.10;0.75;;;7.70;98.20;;;;;;4984884;28;20094;-75
2023/03/10 18:05:42;;;;;;;5.75;1.00;;;7.70;98.00;;;;;;4970953;28;20101;-75
2023/03/10 18:08:09;;;;;;;5.18;1.08;;;7.80;98.30;;;;;;4984269;28;20046;-73
2023/03/10 18:10:36;;;;;;;3.40;0.80;;;7.80;98.20;;;;;;4983529;28;20046;-73
2023/03/10 18:13:07;;;;;;;3.22;0.73;;;7.90;98.30;;;;;;4978813;28;20078;-73
2023/03/10 18:15:33;;;;;;;4.07;0.57;;;7.90;98.70;;;;;;4981164;28;20399;-75
2023/03/10 18:18:00;;;;;;;3.77;1.00;;;7.80;99.20;;;;;;4966104;28;20232;-73
2023/03/10 18:20:26;;;;;;;4.03;0.90;;;7.70;99.30;;;;;;4983676;28;20042;-72
2023/03/10 18:22:52;;;;;;;4.80;0.88;;;7.70;98.80;;;;;;4979551;28;20023;-73
2023/03/10 18:25:18;;;;;;;5.18;0.68;;;7.70;98.30;;;;;;4962260;28;20049;-72
2023/03/10 18:27:45;;;;;;;2.85;0.90;;;7.80;98.00;;;;;;4974080;28;20023;-73
2023/03/10 18:30:12;;;;;;;2.75;0.82;;;7.80;97.70;;;;;;4979906;28;20194;-73
2023/03/10 18:32:38;;;;;;;4.47;0.95;;;7.90;97.80;;;;;;4965860;28;20039;-73
2023/03/10 18:35:05;;;;;;;3.03;1.10;;;7.80;97.90;;;;;;4981755;28;20033;-73